Time;durP1;ratioP1;P1;durP2;ratioP2;P2;SDS_P1;SDS_P2;PMS_P1;PMS_P2;Temp;Humidity;BMP_temperature;BMP_pressure;BME280_temperature;BME280_humidity;BME280_pressure;Samples;Min_cycle;Max_cycle;Signal;HPM_P1;HPM_P2
2022/03/06 00:00:30;;;;;;;;;;;-0.40;73.50;;;0.45;64.16;100948.97;5069819;28;20019;-78
2022/03/06 00:02:57;;;;;;;;;;;1.30;72.60;;;0.51;63.04;100951.75;5069187;28;19925;-77
2022/03/06 00:05:24;;;;;;;;;;;1.80;72.90;;;0.63;62.96;100944.31;5063454;28;20413;-77
2022/03/06 00:07:53;;;;;;;;;;;3.00;73.40;;;0.80;60.53;100952.50;5047323;28;20454;-77
2022/03/06 00:10:20;;;;;;;;;;;1.30;70.80;;;0.80;61.13;100952.50;5046701;28;19925;-77
2022/03/06 00:12:47;;;;;;;;;;;1.20;71.00;;;0.89;59.76;100943.22;5062600;28;19932;-77
2022/03/06 00:15:14;;;;;;;;;;;2.80;70.60;;;0.93;58.83;100945.03;5080277;28;19928;-76
2022/03/06 00:17:41;;;;;;;;;;;1.40;69.10;;;0.91;59.92;100939.81;5052336;28;19940;-80
2022/03/06 00:20:08;;;;;;;;;;;1.30;69.60;;;0.88;59.20;100938.88;5072696;28;20570;-79
2022/03/06 00:22:36;;;;;;;;;;;1.40;69.00;;;0.91;59.05;100947.56;5055689;28;20027;-79
2022/03/06 00:25:04;;;;;;;;;;;3.60;70.50;;;0.97;59.10;100933.91;5055483;28;19935;-79
2022/03/06 00:27:32;;;;;;;;;;;1.90;69.50;;;1.02;58.44;100936.59;5040061;28;19992;-80
2022/03/06 00:29:59;;;;;;;;;;;3.40;69.60;;;0.92;58.90;100933.78;5056830;28;19928;-80
2022/03/06 00:32:26;;;;;;;;;;;1.50;68.70;;;0.91;59.09;100939.81;5055436;28;20345;-79
2022/03/06 00:34:53;;;;;;;;;;;1.60;69.00;;;0.99;59.08;100935.69;5072468;28;20312;-79
2022/03/06 00:37:19;;;;;;;;;;;1.60;68.90;;;0.93;59.20;100942.44;5056076;28;20304;-80
2022/03/06 00:39:46;;;;;;;;;;;1.50;69.30;;;0.95;60.12;100943.34;5056429;28;19932;-81
2022/03/06 00:42:13;;;;;;;;;;;1.70;69.70;;;0.94;61.74;100939.00;5055458;28;19998;-80
2022/03/06 00:44:40;;;;;;;;;;;1.60;70.40;;;0.92;63.14;100946.72;5054188;28;19924;-77
2022/03/06 00:47:07;;;;;;;;;;;4.00;73.10;;;0.88;62.61;100942.31;5070460;28;20439;-77
2022/03/06 00:49:35;;;;;;;;;;;1.60;71.70;;;0.85;62.34;100940.50;5070996;28;19980;-77
2022/03/06 00:52:03;;;;;;;;;;;1.50;71.90;;;0.67;62.57;100951.31;5037563;28;20658;-77
2022/03/06 00:54:30;;;;;;;;;;;1.70;72.00;;;0.76;63.18;100955.84;5053555;28;19924;-78
2022/03/06 00:56:57;;;;;;;;;;;1.40;72.10;;;0.77;65.94;100954.13;5053658;28;20320;-77
2022/03/06 00:59:24;;;;;;;;;;;2.20;74.50;;;0.73;64.83;100947.13;5070311;28;19943;-77
2022/03/06 01:01:51;;;;;;;;;;;1.50;73.70;;;0.61;64.79;100955.44;5054526;28;20301;-78
2022/03/06 01:04:18;;;;;;;;;;;1.40;74.30;;;0.59;66.00;100951.94;5038056;28;19935;-78
2022/03/06 01:06:46;;;;;;;;;;;2.80;75.10;;;0.50;66.31;100953.44;5058272;28;19928;-78
2022/03/06 01:09:13;;;;;;;;;;;1.30;75.10;;;0.36;66.38;100949.59;5058555;28;19935;-78
2022/03/06 01:11:41;;;;;;;;;;;3.00;76.10;;;0.36;69.15;100955.66;5041726;28;19924;-78
2022/03/06 01:14:08;;;;;;;;;;;3.80;79.00;;;0.40;69.52;100959.22;5074609;28;19928;-77
2022/03/06 01:16:35;;;;;;;;;;;1.00;77.40;;;0.45;69.16;100960.22;5074179;28;20030;-77
2022/03/06 01:19:02;;;;;;;;;;;1.80;78.10;;;0.47;68.53;100955.06;5057498;28;19924;-78
2022/03/06 01:21:29;;;;;;;;;;;1.20;78.20;;;0.48;68.76;100949.94;5074551;28;19999;-78
2022/03/06 01:23:56;;;;;;;;;;;2.50;79.10;;;0.48;68.67;100954.25;5072600;28;19928;-78
2022/03/06 01:26:23;;;;;;;;;;;1.10;78.30;;;0.57;67.73;100954.47;5070163;28;19974;-77
2022/03/06 01:28:50;;;;;;;;;;;1.20;77.40;;;0.65;67.07;100955.56;5069157;28;19928;-77
2022/03/06 01:31:17;;;;;;;;;;;1.20;77.50;;;0.70;65.97;100953.97;5052481;28;19940;-77
2022/03/06 01:33:44;;;;;;;;;;;3.20;78.50;;;0.77;65.10;100960.19;5070069;28;19928;-78
2022/03/06 01:36:11;;;;;;;;;;;3.10;77.30;;;0.82;63.82;100958.59;5086250;28;19957;-77
2022/03/06 01:38:38;;;;;;;;;;;1.40;75.70;;;0.91;62.30;100951.91;5069835;28;19935;-77
2022/03/06 01:41:05;;;;;;;;;;;1.40;75.20;;;0.97;62.51;100957.22;5069716;28;20682;-77
2022/03/06 01:43:32;;;;;;;;;;;1.50;75.10;;;1.02;60.63;100952.16;5085246;28;20381;-77
2022/03/06 01:45:58;;;;;;;;;;;1.50;73.50;;;1.06;60.18;100946.19;5086213;28;20712;-77
2022/03/06 01:48:25;;;;;;;;;;;3.10;74.20;;;1.13;59.67;100951.56;5069876;28;19939;-77
2022/03/06 01:50:52;;;;;;;;;;;1.50;72.70;;;1.18;60.12;100949.09;5086428;28;19934;-77
2022/03/06 01:53:20;;;;;;;;;;;3.00;73.80;;;1.19;60.90;100948.25;5085466;28;19933;-77
2022/03/06 01:55:47;;;;;;;;;;;1.60;73.70;;;1.24;59.97;100951.81;5069321;28;19932;-77
2022/03/06 01:58:14;;;;;;;;;;;1.70;72.90;;;1.32;59.01;100953.72;5068621;28;19936;-77
2022/03/06 02:00:48;;;;;;;;;;;4.00;73.70;;;1.32;58.45;100945.97;5070970;28;19942;-77
2022/03/06 02:03:17;;;;;;;;;;;3.40;72.80;;;1.34;59.08;100944.28;5068775;28;19925;-77
2022/03/06 02:05:44;;;;;;;;;;;1.70;71.70;;;1.33;58.80;100951.19;5085919;28;19967;-77
2022/03/06 02:08:12;;;;;;;;;;;3.50;72.30;;;1.32;58.68;100945.97;5086269;28;20424;-77
2022/03/06 02:10:38;;;;;;;;;;;1.80;71.20;;;1.34;58.78;100934.78;5086459;28;19975;-77
2022/03/06 02:13:05;;;;;;;;;;;1.90;71.20;;;1.32;58.94;100939.03;5085648;28;19931;-79
2022/03/06 02:15:33;;;;;;;;;;;1.80;71.20;;;1.28;60.83;100942.41;5074231;28;19925;-79
2022/03/06 02:18:00;;;;;;;;;;;2.00;72.70;;;1.29;60.70;100946.75;5076251;28;19928;-81
2022/03/06 02:20:27;;;;;;;;;;;2.40;73.10;;;1.30;60.38;100940.72;5058071;28;19928;-80
2022/03/06 02:22:56;;;;;;;;;;;3.60;73.10;;;1.34;59.87;100941.69;5040817;28;19928;-79
2022/03/06 02:25:26;;;;;;;;;;;1.80;72.80;;;1.36;61.00;100938.28;5056708;28;19924;-77
2022/03/06 02:27:54;;;;;;;;;;;1.80;73.40;;;1.38;60.70;100936.59;5052315;28;19928;-77
2022/03/06 02:30:23;;;;;;;;;;;1.80;73.00;;;1.37;60.37;100934.84;5052535;28;19935;-77
2022/03/06 02:32:51;;;;;;;;;;;1.80;72.70;;;1.40;60.45;100927.13;5067547;28;19931;-77
2022/03/06 02:35:19;;;;;;;;;;;2.00;72.80;;;1.45;60.20;100931.53;5072739;28;19928;-80
2022/03/06 02:37:47;;;;;;;;;;;3.30;73.40;;;1.48;60.16;100936.78;5074118;28;20015;-79
2022/03/06 02:40:15;;;;;;;;;;;1.80;72.80;;;1.54;59.48;100936.94;5052663;28;19936;-77
2022/03/06 02:42:43;;;;;;;;;;;2.10;72.70;;;1.54;59.39;100932.63;5056129;28;19975;-78
2022/03/06 02:45:14;;;;;;;;;;;4.60;74.40;;;1.61;60.53;100940.56;5056898;28;19925;-80
2022/03/06 02:47:42;;;;;;;;;;;4.90;75.40;;;1.58;61.18;100930.97;5074595;28;19997;-79
2022/03/06 02:50:12;;;;;;;;;;;2.10;74.20;;;1.66;60.48;100933.75;5074882;28;19967;-79
2022/03/06 02:52:39;;;;;;;;;;;2.20;73.70;;;1.69;59.44;100926.03;5040341;28;19928;-80
2022/03/06 02:55:07;;;;;;;;;;;2.10;73.10;;;1.70;60.85;100931.25;5040218;28;19950;-80
2022/03/06 02:57:35;;;;;;;;;;;2.20;73.70;;;1.73;60.82;100930.44;5074025;28;20412;-78
2022/03/06 03:00:05;;;;;;;;;;;2.20;74.40;;;1.73;61.00;100930.44;5040156;28;19929;-78
2022/03/06 03:02:32;;;;;;;;;;;2.30;73.90;;;1.74;60.55;100924.41;5040603;28;19924;-78
2022/03/06 03:05:00;;;;;;;;;;;2.30;74.20;;;1.77;60.98;100932.25;5036573;28;19929;-78
2022/03/06 03:07:27;;;;;;;;;;;3.40;74.40;;;1.79;59.92;100940.94;5036624;28;20314;-79
2022/03/06 03:09:54;;;;;;;;;;;2.30;73.20;;;1.81;61.22;100938.41;5052180;28;19935;-77
2022/03/06 03:12:22;;;;;;;;;;;2.20;74.20;;;1.83;61.17;100941.91;5053318;28;19924;-78
2022/03/06 03:14:49;;;;;;;;;;;2.10;73.50;;;1.86;60.43;100941.97;5036514;28;19929;-78
2022/03/06 03:17:15;;;;;;;;;;;4.10;74.50;;;1.85;60.49;100940.22;5035747;28;19932;-77
2022/03/06 03:19:42;;;;;;;;;;;2.40;73.70;;;1.93;60.55;100951.59;5052241;28;19931;-78
2022/03/06 03:22:09;;;;;;;;;;;2.30;73.50;;;1.93;60.00;100942.97;5045149;28;19951;-77
2022/03/06 03:24:36;;;;;;;;;;;2.40;73.20;;;1.94;59.62;100936.94;5052281;28;19936;-77
2022/03/06 03:27:03;;;;;;;;;;;2.50;73.00;;;1.92;60.39;100944.66;5030841;28;19932;-77
2022/03/06 03:29:30;;;;;;;;;;;2.40;73.60;;;1.93;60.71;100955.94;5050609;28;19936;-77
2022/03/06 03:31:57;;;;;;;;;;;2.40;73.70;;;1.93;61.39;100953.34;5050120;28;20023;-77
2022/03/06 03:34:24;;;;;;;;;;;4.10;74.70;;;1.92;60.60;100946.41;5066374;28;19928;-77
2022/03/06 03:36:51;;;;;;;;;;;2.40;73.70;;;1.94;61.66;100953.34;5066586;28;19929;-77
2022/03/06 03:39:17;;;;;;;;;;;3.80;74.80;;;1.93;60.51;100955.94;5067622;28;20412;-78
2022/03/06 03:41:44;;;;;;;;;;;2.60;73.50;;;1.91;61.86;100950.69;5066840;28;20526;-77
2022/03/06 03:44:11;;;;;;;;;;;2.50;74.00;;;1.90;62.47;100956.75;5065963;28;20531;-77
2022/03/06 03:46:38;;;;;;;;;;;2.50;74.30;;;1.89;63.42;100955.00;5065803;28;19929;-78
2022/03/06 03:49:05;;;;;;;;;;;2.40;75.30;;;1.90;63.29;100955.88;5066354;28;20308;-77
2022/03/06 03:51:32;;;;;;;;;;;2.50;75.40;;;1.94;62.70;100962.88;5033953;28;19925;-77
2022/03/06 03:53:59;;;;;;;;;;;2.30;75.50;;;1.92;62.06;100961.97;5065697;28;19928;-77
2022/03/06 03:56:26;;;;;;;;;;;4.30;75.90;;;1.92;63.30;100964.56;5055436;28;19936;-78
2022/03/06 03:58:53;;;;;;;;;;;3.10;75.40;;;1.91;64.96;100968.00;5071223;28;19933;-77
2022/03/06 04:01:20;;;;;;;;;;;2.40;76.40;;;1.91;64.84;100970.59;5067278;28;19932;-77
2022/03/06 04:03:47;;;;;;;;;;;2.50;76.50;;;1.88;66.34;100971.41;5066562;28;20019;-77
2022/03/06 04:06:14;;;;;;;;;;;4.20;78.40;;;1.92;67.09;100974.94;5067248;28;20388;-77
2022/03/06 04:08:41;;;;;;;;;;;2.50;78.10;;;1.91;66.05;100973.19;5051225;28;19932;-77
2022/03/06 04:11:08;;;;;;;;;;;3.20;78.40;;;1.95;66.90;100977.59;5038711;28;19925;-78
2022/03/06 04:13:35;;;;;;;;;;;2.40;78.00;;;1.93;65.46;100981.91;5052698;28;19934;-77
2022/03/06 04:16:02;;;;;;;;;;;5.00;79.20;;;1.94;66.26;100987.09;5050578;28;19931;-77
2022/03/06 04:18:29;;;;;;;;;;;4.60;78.80;;;1.98;64.81;100980.25;5050816;28;20450;-78
2022/03/06 04:20:56;;;;;;;;;;;2.60;77.30;;;1.95;65.68;100986.28;5069945;28;20286;-77
2022/03/06 04:23:23;;;;;;;;;;;4.20;78.70;;;1.97;65.24;100988.91;5067646;28;19928;-77
2022/03/06 04:25:50;;;;;;;;;;;2.50;77.70;;;1.96;65.55;100985.44;5070981;28;20000;-77
2022/03/06 04:28:17;;;;;;;;;;;2.50;78.00;;;1.94;66.95;100988.84;5075023;28;20066;-78
2022/03/06 04:30:44;;;;;;;;;;;2.50;77.90;;;1.94;66.67;100994.88;5076750;28;19928;-78
2022/03/06 04:33:11;;;;;;;;;;;2.50;78.70;;;1.94;67.20;101002.66;5058943;28;19959;-78
2022/03/06 04:35:38;;;;;;;;;;;3.20;79.10;;;1.90;65.58;101000.00;5056728;28;20027;-78
2022/03/06 04:38:05;;;;;;;;;;;4.40;79.00;;;1.88;66.57;100993.91;5073265;28;20335;-77
2022/03/06 04:40:32;;;;;;;;;;;4.80;79.50;;;1.89;65.36;101003.44;5069756;28;19936;-77
2022/03/06 04:42:59;;;;;;;;;;;4.80;78.80;;;1.84;64.91;101005.94;5070544;28;19982;-77
2022/03/06 04:45:26;;;;;;;;;;;2.40;77.20;;;1.82;65.71;101007.63;5068926;28;19924;-78
2022/03/06 04:47:53;;;;;;;;;;;2.30;76.70;;;1.76;65.43;101013.53;5070623;28;19929;-78
2022/03/06 04:50:20;;;;;;;;;;;2.40;77.00;;;1.73;65.67;101015.19;5071079;28;20300;-77
2022/03/06 04:52:52;;;;;;;;;;;2.20;76.70;;;1.68;66.24;101020.25;5071503;28;19935;-78
2022/03/06 04:55:19;;;;;;;;;;;4.00;78.40;;;1.59;67.05;101018.31;5073888;28;19928;-77
2022/03/06 04:57:47;;;;;;;;;;;3.50;78.30;;;1.60;66.53;101022.69;5075602;28;20458;-77
2022/03/06 05:00:15;;;;;;;;;;;4.00;78.50;;;1.60;67.65;101017.50;5075013;28;20412;-78
2022/03/06 05:02:42;;;;;;;;;;;2.10;78.00;;;1.56;68.94;101023.44;5039650;28;19931;-77
2022/03/06 05:05:10;;;;;;;;;;;2.20;78.80;;;1.60;68.84;101025.28;5070570;28;19924;-78
2022/03/06 05:07:38;;;;;;;;;;;2.10;79.30;;;1.56;69.24;101020.84;5070728;28;19936;-77
2022/03/06 05:10:12;;;;;;;;;;;2.20;79.10;;;1.58;66.27;101023.50;5070394;28;20404;-77
2022/03/06 05:12:41;;;;;;;;;;;2.10;78.00;;;1.58;68.08;101023.50;5054729;28;19928;-77
2022/03/06 05:15:11;;;;;;;;;;;2.10;79.00;;;1.58;68.12;101018.31;5070213;28;19932;-77
2022/03/06 05:17:40;;;;;;;;;;;2.00;78.40;;;1.59;67.58;101018.31;5070867;28;19942;-77
2022/03/06 05:20:10;;;;;;;;;;;4.10;80.60;;;1.63;68.42;101030.53;5054196;28;19982;-77
2022/03/06 05:22:38;;;;;;;;;;;2.00;79.40;;;1.63;67.55;101025.34;5069592;28;19935;-77
2022/03/06 05:25:07;;;;;;;;;;;2.20;79.20;;;1.63;68.31;101024.47;5070017;28;20350;-76
2022/03/06 05:27:34;;;;;;;;;;;1.90;79.80;;;1.64;68.42;101021.94;5070236;28;20417;-77
2022/03/06 05:30:01;;;;;;;;;;;4.40;81.10;;;1.67;67.68;101032.38;5056135;28;20313;-77
2022/03/06 05:32:28;;;;;;;;;;;2.90;79.80;;;1.69;67.58;101030.69;5051732;28;20737;-77
2022/03/06 05:34:55;;;;;;;;;;;2.20;79.70;;;1.75;66.12;101023.88;5072056;28;19932;-77
2022/03/06 05:37:21;;;;;;;;;;;2.10;79.00;;;1.75;67.17;101031.66;5093484;28;19924;-77
2022/03/06 05:39:48;;;;;;;;;;;2.20;79.50;;;1.75;67.60;101035.16;5077020;28;19936;-77
2022/03/06 05:42:16;;;;;;;;;;;2.50;79.30;;;1.76;68.52;101034.31;5074743;28;19995;-77
2022/03/06 05:44:43;;;;;;;;;;;4.00;81.10;;;1.75;68.54;101029.06;5071248;28;19935;-77
2022/03/06 05:47:10;;;;;;;;;;;2.40;80.30;;;1.78;68.70;101031.72;5078162;28;19931;-78
2022/03/06 05:49:37;;;;;;;;;;;2.00;80.00;;;1.80;68.99;101038.72;5102923;28;19940;-76
2022/03/06 05:52:04;;;;;;;;;;;2.30;80.50;;;1.84;68.84;101047.44;5096472;28;19963;-77
2022/03/06 05:54:31;;;;;;;;;;;2.20;80.10;;;1.82;69.04;101044.81;5070002;28;20313;-77
2022/03/06 05:56:58;;;;;;;;;;;2.60;80.30;;;1.84;68.57;101045.72;5053588;28;20321;-77
2022/03/06 05:59:25;;;;;;;;;;;3.60;81.20;;;1.89;69.03;101043.22;5087071;28;20507;-77
2022/03/06 06:01:52;;;;;;;;;;;2.50;80.50;;;1.87;69.34;101044.91;5086611;28;19940;-77
2022/03/06 06:04:19;;;;;;;;;;;2.30;80.70;;;1.91;69.89;101046.72;5069266;28;20364;-77
2022/03/06 06:06:46;;;;;;;;;;;2.30;81.00;;;1.93;69.64;101050.22;5069556;28;20408;-77
2022/03/06 06:09:13;;;;;;;;;;;2.50;80.90;;;1.97;67.72;101057.28;5075590;28;20282;-76
2022/03/06 06:11:40;;;;;;;;;;;2.50;80.00;;;1.98;67.85;101048.63;5069530;28;19971;-77
2022/03/06 06:14:07;;;;;;;;;;;2.40;80.30;;;2.00;68.20;101056.44;5052224;28;19928;-77
2022/03/06 06:16:34;;;;;;;;;;;2.50;80.40;;;2.01;67.96;101052.13;5036562;28;19939;-77
2022/03/06 06:19:01;;;;;;;;;;;2.50;80.40;;;2.02;68.35;101048.69;5052502;28;20027;-76
2022/03/06 06:21:28;;;;;;;;;;;2.60;80.60;;;2.03;68.76;101047.84;5057564;28;20043;-77
2022/03/06 06:23:55;;;;;;;;;;;2.50;80.80;;;2.06;69.72;101055.72;5049621;28;20065;-77
2022/03/06 06:26:24;;;;;;;;;;;4.10;82.40;;;2.12;68.75;101056.72;5032566;28;19940;-77
2022/03/06 06:28:56;;;;;;;;;;;2.70;81.40;;;2.06;70.85;101059.19;5035564;28;20473;-79
2022/03/06 06:31:24;;;;;;;;;;;2.70;82.00;;;2.15;72.34;101068.91;5053513;28;20309;-78
2022/03/06 06:33:51;;;;;;;;;;;0.80;81.20;;;2.23;71.70;101063.88;5070714;28;20356;-78
2022/03/06 06:36:18;;;;;;;;;;;4.10;83.00;;;2.34;69.84;101054.59;5055382;28;19932;-77
2022/03/06 06:38:46;;;;;;;;;;;3.80;82.40;;;2.39;68.59;101065.94;5035690;28;20357;-78
2022/03/06 06:41:13;;;;;;;;;;;2.80;81.50;;;2.41;68.42;101059.06;5048682;28;20660;-77
2022/03/06 06:43:42;;;;;;;;;;;2.90;81.50;;;2.49;67.99;101068.72;5015901;28;20305;-78
2022/03/06 06:46:10;;;;;;;;;;;2.90;81.30;;;2.53;67.74;101062.75;5049947;28;19936;-77
2022/03/06 06:48:37;;;;;;;;;;;3.00;81.40;;;2.57;67.28;101068.88;5044154;28;19936;-77
2022/03/06 06:51:05;;;;;;;;;;;5.10;82.10;;;2.58;68.11;101073.25;5069419;28;19950;-79
2022/03/06 06:53:32;;;;;;;;;;;2.70;81.10;;;2.56;68.92;101073.22;5056090;28;19928;-78
2022/03/06 06:55:59;;;;;;;;;;;4.10;82.10;;;2.65;66.90;101077.72;5072570;28;19935;-78
2022/03/06 06:58:26;;;;;;;;;;;3.00;80.90;;;2.66;68.34;101080.34;5072519;28;19931;-79
2022/03/06 07:00:53;;;;;;;;;;;3.20;81.40;;;2.66;67.95;101080.34;5072146;28;20149;-78
2022/03/06 07:03:20;;;;;;;;;;;0.50;79.80;;;2.69;67.98;101080.41;5056070;28;19974;-79
2022/03/06 07:05:48;;;;;;;;;;;3.20;81.50;;;2.73;67.91;101083.06;5058392;28;20717;-79
2022/03/06 07:08:15;;;;;;;;;;;3.00;81.20;;;2.71;66.92;101089.97;5053853;28;19929;-78
2022/03/06 07:10:41;;;;;;;;;;;3.30;80.80;;;2.75;67.82;101084.88;5052369;28;20014;-77
2022/03/06 07:13:08;;;;;;;;;;;3.30;81.30;;;2.78;67.39;101092.72;5054772;28;19952;-79
2022/03/06 07:15:35;;;;;;;;;;;4.90;82.20;;;2.81;67.32;101089.28;5055644;28;19999;-78
2022/03/06 07:18:02;;;;;;;;;;;3.20;81.10;;;2.81;67.15;101087.56;5072073;28;19931;-78
2022/03/06 07:20:30;;;;;;;;;;;3.20;81.00;;;2.82;67.32;101091.06;5055303;28;19928;-78
2022/03/06 07:22:57;;;;;;;;;;;3.20;81.20;;;2.87;67.26;101089.41;5071162;28;19925;-78
2022/03/06 07:25:24;;;;;;;;;;;3.20;81.40;;;2.87;66.73;101086.81;5072301;28;19962;-79
2022/03/06 07:27:51;;;;;;;;;;;3.30;81.20;;;2.91;66.69;101095.56;5058850;28;20304;-77
2022/03/06 07:30:18;;;;;;;;;;;3.40;80.70;;;2.95;66.38;101097.34;5076268;28;19980;-77
2022/03/06 07:32:48;;;;;;;;;;;3.30;80.90;;;2.94;65.94;101090.41;5075672;28;19988;-78
2022/03/06 07:35:17;;;;;;;;;;;4.60;81.50;;;3.01;66.06;101094.88;5077999;28;20010;-78
2022/03/06 07:37:44;;;;;;;;;;;5.70;82.10;;;3.05;65.55;101095.81;5062049;28;19935;-77
2022/03/06 07:40:14;;;;;;;;;;;3.50;80.70;;;3.10;64.99;101100.25;5081231;28;19932;-78
2022/03/06 07:42:41;;;;;;;;;;;3.50;80.30;;;3.18;64.12;101107.31;5064554;28;20012;-77
2022/03/06 07:45:09;;;;;;;;;;;4.50;80.50;;;3.20;64.10;101103.88;5079424;28;19932;-78
2022/03/06 07:47:37;;;;;;;;;;;3.60;79.80;;;3.28;63.53;101114.44;5059963;28;19947;-78
2022/03/06 07:50:05;;;;;;;;;;;3.50;79.40;;;3.28;62.88;101104.03;5060061;28;19966;-77
2022/03/06 07:52:32;;;;;;;;;;;3.70;79.10;;;3.35;64.10;101112.81;5059885;28;19925;-76
2022/03/06 07:54:59;;;;;;;;;;;4.10;80.30;;;3.37;62.93;101106.81;5059851;28;19929;-77
2022/03/06 07:57:26;;;;;;;;;;;3.50;79.20;;;3.39;63.17;101117.22;5077847;28;19995;-77
2022/03/06 07:59:52;;;;;;;;;;;5.20;80.10;;;3.45;62.39;101113.84;5079070;28;19925;-78
2022/03/06 08:02:19;;;;;;;;;;;3.70;78.80;;;3.51;61.85;101106.13;5077753;28;19932;-77
2022/03/06 08:04:47;;;;;;;;;;;3.80;78.60;;;3.53;61.25;101112.28;5071475;28;19986;-76
2022/03/06 08:07:13;;;;;;;;;;;5.70;79.60;;;3.53;61.87;101117.47;5067425;28;19928;-77
2022/03/06 08:09:40;;;;;;;;;;;3.90;78.30;;;3.57;61.24;101113.19;5067265;28;19935;-77
2022/03/06 08:12:08;;;;;;;;;;;6.10;79.10;;;3.64;61.03;101118.50;5042380;28;19935;-77
2022/03/06 08:14:35;;;;;;;;;;;4.10;78.00;;;3.66;60.90;101118.56;5047066;28;19928;-78
2022/03/06 08:17:02;;;;;;;;;;;4.10;77.60;;;3.71;60.18;101113.44;5031387;28;19983;-78
2022/03/06 08:19:29;;;;;;;;;;;4.10;77.30;;;3.77;59.68;101117.00;5049145;28;19987;-79
2022/03/06 08:21:56;;;;;;;;;;;4.40;77.10;;;3.78;60.01;101121.34;5049259;28;19924;-78
2022/03/06 08:24:23;;;;;;;;;;;4.10;77.00;;;3.88;59.66;101119.78;5031560;28;20304;-79
2022/03/06 08:26:50;;;;;;;;;;;4.50;77.00;;;3.92;58.90;101116.34;5035065;28;19932;-79
2022/03/06 08:29:17;;;;;;;;;;;4.20;76.30;;;3.98;59.93;101128.59;5034952;28;20032;-79
2022/03/06 08:31:44;;;;;;;;;;;4.30;76.70;;;4.01;59.17;101122.56;5050827;28;19975;-79
2022/03/06 08:34:11;;;;;;;;;;;4.30;76.40;;;4.05;59.04;101127.81;5050160;28;19935;-79
2022/03/06 08:36:38;;;;;;;;;;;4.40;76.30;;;4.04;58.84;101112.19;5050653;28;19936;-79
2022/03/06 08:39:05;;;;;;;;;;;5.30;76.40;;;4.15;59.04;101115.84;5034204;28;20374;-78
2022/03/06 08:41:31;;;;;;;;;;;4.80;76.30;;;4.20;58.71;101116.78;5033751;28;19932;-79
2022/03/06 08:43:59;;;;;;;;;;;6.20;77.10;;;4.28;58.16;101109.06;5049537;28;19983;-79
2022/03/06 08:46:26;;;;;;;;;;;4.50;75.90;;;4.34;58.02;101113.50;5055986;28;19924;-78
2022/03/06 08:48:55;;;;;;;;;;;4.60;76.00;;;4.40;58.08;101116.16;5069572;28;19924;-79
2022/03/06 08:51:22;;;;;;;;;;;6.50;76.70;;;4.51;56.80;101116.31;5058108;28;19925;-78
2022/03/06 08:53:49;;;;;;;;;;;6.20;75.80;;;4.58;56.52;101117.25;5053676;28;20300;-79
2022/03/06 08:56:16;;;;;;;;;;;5.50;74.90;;;4.66;56.25;101120.84;5070909;28;19925;-78
2022/03/06 08:58:43;;;;;;;;;;;7.80;76.20;;;4.66;56.01;101119.09;5072797;28;19971;-78
2022/03/06 09:01:10;;;;;;;;;;;4.90;73.80;;;4.68;53.94;101114.81;5072027;28;19931;-79
2022/03/06 09:03:37;;;;;;;;;;;6.80;72.80;;;4.78;53.82;101121.00;5067408;28;20034;-77
2022/03/06 09:06:04;;;;;;;;;;;5.10;71.50;;;4.89;53.43;101118.53;5051496;28;19928;-77
2022/03/06 09:08:31;;;;;;;;;;;5.00;70.90;;;4.94;53.01;101116.84;5074067;28;19924;-79
2022/03/06 09:10:58;;;;;;;;;;;7.30;72.10;;;5.00;52.30;101120.38;5076624;28;19928;-79
2022/03/06 09:13:25;;;;;;;;;;;5.30;69.80;;;5.09;51.25;101123.09;5072066;28;19986;-78
2022/03/06 09:15:52;;;;;;;;;;;6.90;69.60;;;5.16;51.19;101122.31;5058600;28;20317;-79
2022/03/06 09:18:19;;;;;;;;;;;5.40;68.40;;;5.12;50.17;101112.66;5074929;28;19925;-78
2022/03/06 09:20:46;;;;;;;;;;;5.30;66.60;;;5.21;50.04;101125.81;5076124;28;19956;-79
2022/03/06 09:23:13;;;;;;;;;;;5.40;66.80;;;5.28;49.48;101123.25;5075059;28;20329;-78
2022/03/06 09:25:40;;;;;;;;;;;5.40;66.20;;;5.35;49.30;101122.47;5076211;28;19942;-79
2022/03/06 09:28:07;;;;;;;;;;;5.90;65.60;;;5.43;49.09;101125.16;5056218;28;19931;-79
2022/03/06 09:30:34;;;;;;;;;;;5.70;65.00;;;5.53;48.43;101125.25;5035635;28;19978;-79
2022/03/06 09:33:02;;;;;;;;;;;5.70;64.40;;;5.57;48.21;101118.34;5059911;28;19931;-77
2022/03/06 09:35:30;;;;;;;;;;;5.80;63.70;;;5.55;47.28;101114.84;5072829;28;19929;-76
2022/03/06 09:37:58;;;;;;;;;;;5.90;62.50;;;5.63;46.97;101112.31;5071680;28;19932;-78
2022/03/06 09:40:25;;;;;;;;;;;6.70;61.70;;;5.62;46.59;101114.03;5073990;28;19928;-77
2022/03/06 09:42:52;;;;;;;;;;;6.90;61.10;;;5.87;45.81;101122.06;5057007;28;19970;-79
2022/03/06 09:45:21;;;;;;;;;;;6.30;59.60;;;5.93;45.04;101126.44;5072019;28;20027;-78
2022/03/06 09:47:48;;;;;;;;;;;6.20;58.70;;;5.94;44.87;101120.38;5055715;28;19928;-78
2022/03/06 09:50:15;;;;;;;;;;;6.20;58.30;;;6.00;45.00;101117.78;5071913;28;20370;-78
2022/03/06 09:52:43;;;;;;;;;;;6.20;57.90;;;6.05;44.99;101123.09;5072958;28;20336;-78
2022/03/06 09:55:11;;;;;;;;;;;6.70;57.80;;;6.09;43.09;101112.69;5073731;28;19952;-79
2022/03/06 09:57:38;;;;;;;;;;;6.30;55.80;;;6.17;43.45;101109.22;5049566;28;19977;-79
2022/03/06 10:00:08;;;;;;;;;;;6.80;56.00;;;6.31;42.56;101107.56;5071941;28;19924;-77
2022/03/06 10:02:54;;;;;;;;;;;6.50;55.10;;;6.47;42.08;101116.34;5071018;28;19929;-79
2022/03/06 10:05:29;;;;;;;;;;;6.50;54.40;;;6.50;41.48;101108.53;5087310;28;20517;-78
2022/03/06 10:08:31;;;;;;;;;;;6.60;53.40;;;6.60;40.76;101119.03;5054469;28;19924;-79
2022/03/06 10:11:01;;;;;;;;;;;6.80;53.00;;;6.47;39.87;101118.97;5034331;28;20031;-79
2022/03/06 10:13:37;;;;;;;;;;;6.90;50.90;;;6.62;40.37;101118.19;5048741;28;19928;-79
2022/03/06 10:16:20;;;;;;;;;;;6.90;51.20;;;6.74;39.63;101113.88;5056111;28;19928;-79
2022/03/06 10:18:52;;;;;;;;;;;7.00;50.70;;;6.61;38.96;101111.19;5071686;28;19950;-78
2022/03/06 10:21:28;;;;;;;;;;;7.00;49.10;;;6.73;39.19;101110.38;5055685;28;19929;-78
2022/03/06 10:23:57;;;;;;;;;;;6.90;49.80;;;6.71;38.34;101119.94;5071876;28;19935;-77
2022/03/06 10:26:29;;;;;;;;;;;9.30;49.90;;;6.78;38.12;101119.09;5072227;28;19967;-77
2022/03/06 10:29:12;;;;;;;;;;;7.10;48.30;;;6.85;37.97;101113.91;5071062;28;19925;-77
2022/03/06 10:31:58;;;;;;;;;;;7.10;48.10;;;6.91;38.30;101127.00;5062937;28;19928;-77
2022/03/06 10:34:39;;;;;;;;;;;7.10;48.20;;;6.94;37.81;101122.66;5053546;28;19955;-78
2022/03/06 10:37:06;;;;;;;;;;;7.10;47.90;;;6.98;37.57;101118.31;5066181;28;19935;-78
2022/03/06 10:39:46;;;;;;;;;;;7.70;48.00;;;7.09;37.79;101115.72;5049553;28;20306;-76
2022/03/06 10:42:21;;;;;;;;;;;7.20;47.70;;;7.20;37.38;101114.00;5050606;28;20437;-77
2022/03/06 10:44:48;;;;;;;;;;;7.30;47.30;;;7.20;37.26;101115.72;5034023;28;19935;-77
2022/03/06 10:47:18;;;;;;;;;;;7.50;46.90;;;7.35;37.20;101114.91;5049546;28;20443;-76
2022/03/06 10:50:03;;;;;;;;;;;7.50;47.10;;;7.46;37.26;101117.53;5050099;28;20019;-77
2022/03/06 10:52:39;;;;;;;;;;;7.60;46.80;;;7.38;36.26;101113.13;5033708;28;19928;-76
2022/03/06 10:55:09;;;;;;;;;;;8.00;45.90;;;7.55;36.70;101120.13;5050733;28;19935;-76
2022/03/06 10:57:36;;;;;;;;;;;7.70;46.10;;;7.62;36.58;101119.28;5050372;28;20417;-77
2022/03/06 11:00:04;;;;;;;;;;;7.90;45.80;;;7.64;36.04;101111.41;5051644;28;20298;-77
2022/03/06 11:02:35;;;;;;;;;;;7.90;45.70;;;7.69;36.21;101109.69;5049281;28;19957;-77
2022/03/06 11:05:02;;;;;;;;;;;7.90;45.50;;;7.73;36.18;101107.94;5049999;28;19925;-77
2022/03/06 11:07:30;;;;;;;;;;;8.00;45.30;;;7.80;35.81;101107.03;5036461;28;20562;-76
2022/03/06 11:09:57;;;;;;;;;;;8.10;45.10;;;8.08;36.04;101107.03;5066441;28;20015;-78
2022/03/06 11:12:24;;;;;;;;;;;8.20;45.30;;;8.13;35.21;101104.41;5028795;28;19935;-77
2022/03/06 11:14:52;;;;;;;;;;;8.50;44.50;;;8.42;34.10;101101.69;5068476;28;19924;-76
2022/03/06 11:17:19;;;;;;;;;;;8.50;43.60;;;8.53;34.28;101098.19;5071178;28;19932;-77
2022/03/06 11:19:46;;;;;;;;;;;8.60;43.70;;;8.67;33.86;101098.13;5068470;28;19966;-76
2022/03/06 11:22:24;;;;;;;;;;;8.80;43.50;;;8.48;33.58;101098.16;5069187;28;19947;-75
2022/03/06 11:24:59;;;;;;;;;;;8.80;42.60;;;8.86;34.06;101102.41;5068094;28;19982;-76
2022/03/06 11:28:00;;;;;;;;;;;8.90;43.20;;;8.88;34.06;101095.38;5068647;28;19924;-76